createdAt,value
2017-12-29T15:04:22.696Z,6.20
2017-12-29T15:05:22.682Z,7.20
2017-12-29T15:07:15.662Z,8.20
2017-12-29T15:08:15.628Z,9.40
2017-12-29T15:09:15.631Z,8.60
2017-12-29T15:10:15.628Z,7.10
2017-12-29T15:11:15.637Z,7.50
2017-12-29T15:12:15.674Z,10.30
2017-12-29T15:13:15.638Z,12.00
2017-12-29T15:14:15.640Z,11.30
2017-12-29T15:15:15.642Z,9.20
2017-12-29T15:16:15.650Z,7.10
2017-12-29T15:17:15.647Z,7.20
2017-12-29T15:18:15.648Z,10.30
2017-12-29T15:19:15.652Z,10.30
2017-12-29T15:20:15.654Z,11.90
2017-12-29T15:21:15.660Z,12.40
2017-12-29T15:22:15.660Z,8.90
2017-12-29T15:23:15.663Z,7.70
2017-12-29T15:24:15.668Z,9.80
2017-12-29T15:25:15.667Z,8.30
2017-12-29T15:26:15.674Z,9.30
2017-12-29T15:27:15.674Z,11.30
2017-12-29T15:28:15.678Z,8.80
2017-12-29T15:29:15.677Z,8.30
2017-12-29T15:30:15.684Z,10.80
2017-12-29T15:31:15.682Z,6.40
2017-12-29T15:32:15.688Z,8.60
2017-12-29T15:33:15.686Z,10.50
2017-12-29T15:34:15.692Z,10.20
2017-12-29T15:35:15.700Z,8.90
2017-12-29T15:36:15.692Z,9.10
2017-12-29T15:37:15.702Z,8.70
2017-12-29T15:38:15.699Z,13.70
2017-12-29T15:39:15.702Z,11.20
2017-12-29T15:40:15.702Z,8.40
2017-12-29T15:41:15.723Z,10.30
2017-12-29T15:42:15.713Z,9.80
2017-12-29T15:43:15.714Z,8.00
2017-12-29T15:44:15.713Z,10.80
2017-12-29T15:45:15.716Z,8.20
2017-12-29T15:46:15.726Z,8.00
2017-12-29T15:47:15.725Z,11.30
2017-12-29T15:48:15.721Z,9.40
2017-12-29T15:49:15.723Z,9.50
2017-12-29T15:50:15.726Z,11.70
2017-12-29T15:51:15.726Z,9.60
2017-12-29T15:52:15.775Z,9.00
2017-12-29T15:53:15.740Z,8.50
2017-12-29T15:54:15.732Z,8.40
2017-12-29T15:55:15.737Z,11.00
2017-12-29T15:56:15.742Z,11.10
2017-12-29T15:57:15.745Z,10.20
2017-12-29T15:58:15.740Z,7.90
2017-12-29T15:59:15.741Z,8.20
2017-12-29T16:00:15.747Z,9.00
2017-12-29T16:01:15.748Z,9.60
2017-12-29T16:02:15.752Z,9.00
2017-12-29T16:03:15.749Z,11.40
2017-12-29T16:04:15.751Z,9.20
2017-12-29T16:05:15.752Z,8.30
2017-12-29T16:06:15.757Z,10.90
2017-12-29T16:07:15.759Z,10.50
2017-12-29T16:08:15.759Z,9.60
2017-12-29T16:09:15.758Z,8.70
2017-12-29T16:10:15.761Z,9.60
2017-12-29T16:11:15.766Z,9.10
2017-12-29T16:12:15.771Z,9.70
2017-12-29T16:13:15.769Z,10.00
2017-12-29T16:14:15.769Z,10.00
2017-12-29T16:15:15.774Z,9.70
2017-12-29T16:16:15.770Z,10.00
2017-12-29T16:17:15.778Z,9.60
2017-12-29T16:18:15.777Z,9.00
2017-12-29T16:19:15.782Z,9.30
2017-12-29T16:20:15.778Z,8.40
2017-12-29T16:21:15.783Z,9.10
2017-12-29T16:22:15.782Z,9.20
2017-12-29T16:23:15.787Z,8.10
2017-12-29T16:24:15.785Z,8.70
2017-12-29T16:25:15.788Z,8.60
2017-12-29T16:26:15.792Z,7.70
2017-12-29T16:27:15.811Z,8.90
2017-12-29T16:28:15.828Z,8.60
2017-12-29T16:29:15.798Z,7.90
2017-12-29T16:30:15.799Z,8.10
2017-12-29T16:31:15.796Z,8.30
2017-12-29T16:32:15.806Z,7.40
2017-12-29T16:33:15.802Z,9.10
2017-12-29T16:34:15.804Z,9.50
2017-12-29T16:35:15.802Z,8.00
2017-12-29T16:36:15.807Z,9.60
2017-12-29T16:37:15.806Z,7.30
2017-12-29T16:38:15.812Z,9.10
2017-12-29T16:39:15.809Z,7.80
2017-12-29T16:40:15.811Z,8.10
2017-12-29T16:41:15.810Z,9.40
2017-12-29T16:42:15.821Z,9.10
2017-12-29T16:43:15.814Z,9.80
2017-12-29T16:44:15.819Z,10.00
2017-12-29T16:45:15.818Z,9.80
2017-12-29T16:46:15.821Z,10.20
2017-12-29T16:47:15.823Z,9.20
2017-12-29T16:48:15.820Z,8.90
2017-12-29T16:49:15.826Z,10.30
2017-12-29T16:50:15.836Z,9.00
2017-12-29T16:51:15.830Z,9.80
2017-12-29T16:52:15.828Z,10.50
2017-12-29T16:53:15.832Z,13.20
2017-12-29T16:54:15.832Z,8.40
2017-12-29T16:55:15.832Z,10.30
2017-12-29T16:56:15.846Z,11.70
2017-12-29T16:57:15.880Z,9.20
2017-12-29T16:58:15.836Z,11.40
2017-12-29T16:59:15.869Z,8.50
2017-12-29T17:00:15.867Z,11.60
2017-12-29T17:01:15.845Z,13.10
2017-12-29T17:02:15.843Z,10.00
2017-12-29T17:03:15.853Z,10.30
2017-12-29T17:04:15.850Z,11.30
2017-12-29T17:05:15.851Z,9.20
2017-12-29T17:06:15.849Z,8.40
2017-12-29T17:07:15.849Z,11.00
2017-12-29T17:08:15.854Z,8.60
2017-12-29T17:09:15.853Z,9.20
2017-12-29T17:10:15.861Z,9.40
2017-12-29T17:11:15.858Z,10.30
2017-12-29T17:12:15.863Z,9.40
2017-12-29T17:13:15.860Z,11.90
2017-12-29T17:14:15.863Z,10.60
2017-12-29T17:15:15.863Z,8.50
2017-12-29T17:16:15.889Z,12.40
2017-12-29T17:17:15.865Z,10.70
2017-12-29T17:18:15.873Z,8.30
2017-12-29T17:19:15.870Z,8.20
2017-12-29T17:20:15.875Z,7.30
2017-12-29T17:21:15.875Z,8.30
2017-12-29T17:22:15.881Z,8.80
2017-12-29T17:23:15.875Z,8.40
2017-12-29T17:24:15.879Z,7.90
2017-12-29T17:25:15.882Z,7.50
2017-12-29T17:26:15.881Z,7.10
2017-12-29T17:27:15.889Z,8.50
2017-12-29T17:28:15.888Z,9.50
2017-12-29T17:29:15.892Z,8.40
2017-12-29T17:30:15.888Z,8.80
2017-12-29T17:31:15.896Z,9.90
2017-12-29T17:32:15.912Z,9.20
2017-12-29T17:33:15.896Z,8.00
2017-12-29T17:34:15.892Z,9.30
2017-12-29T17:35:15.900Z,9.20
2017-12-29T17:36:15.895Z,11.00
2017-12-29T17:37:15.921Z,9.20
2017-12-29T17:38:15.926Z,6.90
2017-12-29T17:39:15.906Z,9.20
2017-12-29T17:40:15.905Z,6.30
2017-12-29T17:41:15.911Z,8.00
2017-12-29T17:42:15.909Z,8.50
2017-12-29T17:43:15.914Z,6.20
2017-12-29T17:44:15.919Z,5.50
2017-12-29T17:45:15.915Z,7.90
2017-12-29T17:46:15.912Z,8.20
2017-12-29T17:47:15.919Z,7.10
2017-12-29T17:48:15.919Z,6.50
2017-12-29T17:49:15.920Z,6.00
2017-12-29T17:50:15.926Z,5.90
2017-12-29T17:51:15.926Z,5.40
2017-12-29T17:52:15.953Z,7.20
2017-12-29T17:53:15.937Z,6.70
2017-12-29T17:54:15.936Z,6.90
2017-12-29T17:55:15.937Z,5.20
2017-12-29T17:56:15.930Z,6.20
2017-12-29T17:57:15.935Z,5.80
2017-12-29T17:58:15.944Z,5.00
2017-12-29T17:59:15.943Z,4.90
2017-12-29T18:00:15.940Z,6.10
2017-12-29T18:01:15.944Z,5.70
2017-12-29T18:02:15.953Z,8.10
2017-12-29T18:03:15.949Z,5.80
2017-12-29T18:04:15.948Z,6.00
2017-12-29T18:05:15.954Z,6.40
2017-12-29T18:06:15.948Z,7.00
2017-12-29T18:07:15.957Z,5.00
2017-12-29T18:08:15.958Z,4.40
2017-12-29T18:09:15.965Z,4.40
2017-12-29T18:10:15.961Z,4.90
2017-12-29T18:11:15.962Z,4.90
2017-12-29T18:12:15.967Z,6.90
2017-12-29T18:13:15.970Z,6.80
2017-12-29T18:14:15.976Z,5.80
2017-12-29T18:15:16.022Z,5.60
2017-12-29T18:16:15.978Z,5.80
2017-12-29T18:17:15.979Z,4.90
2017-12-29T18:18:15.980Z,4.80
2017-12-29T18:19:15.979Z,6.50
2017-12-29T18:20:15.978Z,5.50
2017-12-29T18:21:15.981Z,6.20
2017-12-29T18:22:15.988Z,5.90
2017-12-29T18:23:15.985Z,5.50
2017-12-29T18:24:16.013Z,4.10
2017-12-29T18:25:15.996Z,5.00
2017-12-29T18:26:15.994Z,6.30
2017-12-29T18:27:16.001Z,6.80
2017-12-29T18:28:16.001Z,4.50
2017-12-29T18:29:16.000Z,7.90
2017-12-29T18:30:16.004Z,5.00
2017-12-29T18:31:15.999Z,4.80
2017-12-29T18:32:16.008Z,6.50
2017-12-29T18:33:16.022Z,4.50
2017-12-29T18:34:16.058Z,5.20
2017-12-29T18:35:16.002Z,5.10
2017-12-29T18:36:16.031Z,6.80
2017-12-29T18:37:16.018Z,5.50
2017-12-29T18:38:16.013Z,5.80
2017-12-29T18:39:16.026Z,6.50
2017-12-29T18:40:16.019Z,4.60
2017-12-29T18:41:16.033Z,5.60
2017-12-29T18:42:16.022Z,5.70
2017-12-29T18:43:16.028Z,6.90
2017-12-29T18:44:16.036Z,6.90
2017-12-29T18:45:16.027Z,5.50
2017-12-29T18:46:16.050Z,5.60
2017-12-29T18:47:16.033Z,5.30
2017-12-29T18:48:16.043Z,4.80
2017-12-29T18:49:16.040Z,5.70
2017-12-29T18:50:16.042Z,4.80
2017-12-29T18:51:16.073Z,6.50
2017-12-29T18:52:16.078Z,7.20
2017-12-29T18:53:16.052Z,5.30
2017-12-29T18:54:16.045Z,6.30
2017-12-29T18:55:16.050Z,14.00
2017-12-29T18:56:16.050Z,12.50
2017-12-29T18:57:16.071Z,8.20
2017-12-29T18:58:16.054Z,9.30
2017-12-29T18:59:16.091Z,10.70
2017-12-29T19:00:16.063Z,6.10
2017-12-29T19:01:16.067Z,7.30
2017-12-29T19:02:16.081Z,5.50
2017-12-29T19:03:16.061Z,5.80
2017-12-29T19:04:16.107Z,5.60
2017-12-29T19:05:16.070Z,7.40
2017-12-29T19:06:16.076Z,6.50
2017-12-29T19:07:16.077Z,6.00
2017-12-29T19:08:16.077Z,6.10
2017-12-29T19:09:16.081Z,6.10
2017-12-29T19:10:16.084Z,5.80
2017-12-29T19:11:16.084Z,6.90
2017-12-29T19:12:16.128Z,5.60
2017-12-29T19:13:16.087Z,6.00
2017-12-29T19:14:16.095Z,8.30
2017-12-29T19:15:16.087Z,6.00
2017-12-29T19:16:16.094Z,7.90
2017-12-29T19:17:16.098Z,6.70
2017-12-29T19:18:16.102Z,5.50
2017-12-29T19:19:16.099Z,4.80
2017-12-29T19:20:16.105Z,7.60
2017-12-29T19:21:16.104Z,7.50
2017-12-29T19:22:16.105Z,6.20
2017-12-29T19:23:16.111Z,6.50
2017-12-29T19:24:16.112Z,6.40
2017-12-29T19:25:16.121Z,6.60
2017-12-29T19:26:16.128Z,6.00
2017-12-29T19:27:16.121Z,6.20
2017-12-29T19:28:16.121Z,6.10
2017-12-29T19:29:16.122Z,5.20
2017-12-29T19:30:16.125Z,6.90
2017-12-29T19:31:16.128Z,6.70
2017-12-29T19:32:16.130Z,5.20
2017-12-29T19:33:16.135Z,8.30
2017-12-29T19:34:16.138Z,6.90
2017-12-29T19:35:16.138Z,6.70
2017-12-29T19:36:16.143Z,5.50
2017-12-29T19:37:16.138Z,8.10
2017-12-29T19:38:16.160Z,6.60
2017-12-29T19:39:16.149Z,7.00
2017-12-29T19:40:16.146Z,6.70
2017-12-29T19:41:16.154Z,7.40
2017-12-29T19:42:16.152Z,6.00
2017-12-29T19:43:16.152Z,5.60
2017-12-29T19:44:16.161Z,8.50
2017-12-29T19:45:16.159Z,5.90
2017-12-29T19:46:16.166Z,4.10
2017-12-29T19:47:16.164Z,4.30
2017-12-29T19:48:16.168Z,4.20
2017-12-29T19:49:16.175Z,4.80
2017-12-29T19:50:16.173Z,4.70
2017-12-29T19:51:16.171Z,4.90
2017-12-29T19:52:16.175Z,5.10
2017-12-29T19:53:16.179Z,4.80
2017-12-29T19:54:16.182Z,6.20
2017-12-29T19:55:16.183Z,4.50
2017-12-29T19:56:16.190Z,5.20
2017-12-29T19:57:16.189Z,4.60
2017-12-29T19:58:17.172Z,6.10
2017-12-29T19:59:16.193Z,4.20
2017-12-29T20:00:16.192Z,5.50
2017-12-29T20:01:16.198Z,5.00
2017-12-29T20:02:16.203Z,5.40
2017-12-29T20:03:16.207Z,4.90
2017-12-29T20:04:16.202Z,4.20
2017-12-29T20:05:16.204Z,4.90
2017-12-29T20:06:16.204Z,5.60
2017-12-29T20:07:16.210Z,4.00
2017-12-29T20:08:16.210Z,5.00
2017-12-29T20:09:16.218Z,6.20
2017-12-29T20:10:16.216Z,5.80
2017-12-29T20:11:16.218Z,5.80
2017-12-29T20:12:16.216Z,4.70
2017-12-29T20:13:16.220Z,5.10
2017-12-29T20:14:16.231Z,5.80
2017-12-29T20:15:16.225Z,6.30
2017-12-29T20:16:16.231Z,6.50
2017-12-29T20:17:16.233Z,5.10
2017-12-29T20:18:16.238Z,7.10
2017-12-29T20:19:16.236Z,6.20
2017-12-29T20:20:16.245Z,4.60
2017-12-29T20:21:16.254Z,5.30
2017-12-29T20:22:16.261Z,5.10
2017-12-29T20:23:16.251Z,4.50
2017-12-29T20:24:16.249Z,6.60
2017-12-29T20:25:16.252Z,5.70
2017-12-29T20:26:16.254Z,4.90
2017-12-29T20:27:16.264Z,5.50
2017-12-29T20:28:16.264Z,5.30
2017-12-29T20:29:16.261Z,5.50
2017-12-29T20:30:16.271Z,5.70
2017-12-29T20:31:16.268Z,6.40
2017-12-29T20:32:16.289Z,5.40
2017-12-29T20:33:16.407Z,5.60
2017-12-29T20:34:16.277Z,4.90
2017-12-29T20:35:16.279Z,5.20
2017-12-29T20:36:16.284Z,4.80
2017-12-29T20:37:16.281Z,5.30
2017-12-29T20:38:16.285Z,5.00
2017-12-29T20:39:16.287Z,6.20
2017-12-29T20:40:16.310Z,5.50
2017-12-29T20:41:16.300Z,5.20
2017-12-29T20:42:16.296Z,5.70
2017-12-29T20:43:16.297Z,6.30
2017-12-29T20:44:16.334Z,5.60
2017-12-29T20:45:16.334Z,6.40
2017-12-29T20:46:16.306Z,5.70
2017-12-29T20:47:16.305Z,5.60
2017-12-29T20:48:16.309Z,6.70
2017-12-29T20:49:16.314Z,7.00
2017-12-29T20:50:16.313Z,5.80
2017-12-29T20:51:16.313Z,5.70
2017-12-29T20:52:16.370Z,7.30
2017-12-29T20:53:16.323Z,5.80
2017-12-29T20:54:16.328Z,6.00
2017-12-29T20:55:16.332Z,8.20
2017-12-29T20:56:16.325Z,6.90
2017-12-29T20:57:16.328Z,5.60
2017-12-29T20:58:16.335Z,6.00
2017-12-29T20:59:16.337Z,6.30
2017-12-29T21:00:16.339Z,6.70
2017-12-29T21:01:16.339Z,6.60
2017-12-29T21:02:16.358Z,6.30
2017-12-29T21:03:16.342Z,6.50
2017-12-29T21:04:16.353Z,6.70
2017-12-29T21:05:16.350Z,7.90
2017-12-29T21:06:16.361Z,6.70
2017-12-29T21:07:16.355Z,7.30
2017-12-29T21:08:16.361Z,6.60
2017-12-29T21:09:16.358Z,7.10
2017-12-29T21:10:16.366Z,7.00
2017-12-29T21:11:16.370Z,6.70
2017-12-29T21:12:16.377Z,6.30
2017-12-29T21:13:16.369Z,6.90
2017-12-29T21:14:16.376Z,7.80
2017-12-29T21:15:16.375Z,6.80
2017-12-29T21:16:16.378Z,6.70
2017-12-29T21:17:16.380Z,8.20
2017-12-29T21:18:16.384Z,7.60
2017-12-29T21:19:16.387Z,9.20
2017-12-29T21:20:16.386Z,7.60
2017-12-29T21:21:16.388Z,6.80
2017-12-29T21:22:16.391Z,7.10
2017-12-29T21:23:16.394Z,7.20
2017-12-29T21:24:16.396Z,7.40
2017-12-29T21:25:16.404Z,7.50
2017-12-29T21:26:16.402Z,7.90
2017-12-29T21:27:16.408Z,7.20
2017-12-29T21:28:16.408Z,7.60
2017-12-29T21:29:16.412Z,8.00
2017-12-29T21:30:16.410Z,10.20
2017-12-29T21:31:16.415Z,9.80
2017-12-29T21:32:16.418Z,9.20
2017-12-29T21:33:16.420Z,9.50
2017-12-29T21:34:16.422Z,8.00
2017-12-29T21:35:16.425Z,8.10
2017-12-29T21:36:16.428Z,9.20
2017-12-29T21:37:16.422Z,9.40
2017-12-29T21:38:16.432Z,8.90
2017-12-29T21:39:16.443Z,9.50
2017-12-29T21:40:16.435Z,9.30
2017-12-29T21:41:16.437Z,8.80
2017-12-29T21:42:16.443Z,10.10
2017-12-29T21:43:16.445Z,10.00
2017-12-29T21:44:16.447Z,10.30
2017-12-29T21:45:16.449Z,9.30
2017-12-29T21:46:16.458Z,9.80
2017-12-29T21:47:16.455Z,11.80
2017-12-29T21:48:16.456Z,9.60
2017-12-29T21:49:16.461Z,11.60
2017-12-29T21:50:16.475Z,10.50
2017-12-29T21:51:16.462Z,10.30
2017-12-29T21:52:16.469Z,10.80
2017-12-29T21:53:16.475Z,11.10
2017-12-29T21:54:16.471Z,13.90
2017-12-29T21:55:16.471Z,12.80
2017-12-29T21:56:16.478Z,10.40
2017-12-29T21:57:16.487Z,11.20
2017-12-29T21:58:16.481Z,10.50
2017-12-29T21:59:16.482Z,16.20
2017-12-29T22:00:16.488Z,21.20
2017-12-29T22:01:16.487Z,20.90
2017-12-29T22:02:16.495Z,24.80
2017-12-29T22:03:16.495Z,27.50
2017-12-29T22:04:16.497Z,22.10
2017-12-29T22:05:16.499Z,19.20
2017-12-29T22:06:16.500Z,15.40
2017-12-29T22:07:16.502Z,13.60
2017-12-29T22:08:16.508Z,13.20
2017-12-29T22:09:16.508Z,14.80
2017-12-29T22:10:16.513Z,15.30
2017-12-29T22:11:16.506Z,12.40
2017-12-29T22:12:16.514Z,16.30
2017-12-29T22:13:16.521Z,14.90
2017-12-29T22:14:16.515Z,13.20
2017-12-29T22:15:16.523Z,15.20
2017-12-29T22:16:16.524Z,13.30
2017-12-29T22:17:16.529Z,15.10
2017-12-29T22:18:16.543Z,15.90
2017-12-29T22:19:16.576Z,15.10
2017-12-29T22:20:16.546Z,15.00
2017-12-29T22:21:16.541Z,15.10
2017-12-29T22:22:16.558Z,15.60
2017-12-29T22:23:16.552Z,15.30
2017-12-29T22:24:16.543Z,15.40
2017-12-29T22:25:16.548Z,13.80
2017-12-29T22:26:16.548Z,15.70
2017-12-29T22:27:16.555Z,16.40
2017-12-29T22:28:16.559Z,17.10
2017-12-29T22:29:16.555Z,17.40
2017-12-29T22:30:16.562Z,17.70
2017-12-29T22:31:16.559Z,16.60
2017-12-29T22:32:16.561Z,17.10
2017-12-29T22:33:16.565Z,15.60
2017-12-29T22:34:16.619Z,16.10
2017-12-29T22:35:16.573Z,16.90
2017-12-29T22:36:16.576Z,19.80
2017-12-29T22:37:16.573Z,16.40
2017-12-29T22:38:16.579Z,17.10
2017-12-29T22:39:16.575Z,17.10
2017-12-29T22:40:16.578Z,19.00
2017-12-29T22:41:16.584Z,17.60
2017-12-29T22:42:16.591Z,17.90
2017-12-29T22:43:16.593Z,16.90
2017-12-29T22:44:16.597Z,19.20
2017-12-29T22:45:16.596Z,18.00
2017-12-29T22:46:16.599Z,17.20
2017-12-29T22:47:16.599Z,19.30
2017-12-29T22:48:16.601Z,17.40
2017-12-29T22:49:16.609Z,18.80
2017-12-29T22:50:16.608Z,17.90
2017-12-29T22:51:16.608Z,18.40
2017-12-29T22:52:16.615Z,18.60
2017-12-29T22:53:16.620Z,20.70
2017-12-29T22:54:16.619Z,19.50
2017-12-29T22:55:16.619Z,19.30
2017-12-29T22:56:16.626Z,23.60
2017-12-29T22:57:16.650Z,19.50
2017-12-29T22:58:16.628Z,19.70
2017-12-29T22:59:16.628Z,20.00
2017-12-29T23:00:16.633Z,19.30
2017-12-29T23:01:16.641Z,21.70
2017-12-29T23:02:16.643Z,22.00
2017-12-29T23:03:16.641Z,20.20
2017-12-29T23:04:16.643Z,18.90
2017-12-29T23:05:16.644Z,21.80
2017-12-29T23:06:16.651Z,21.80
2017-12-29T23:07:16.654Z,19.10
2017-12-29T23:08:16.654Z,21.10
2017-12-29T23:09:16.658Z,21.80
2017-12-29T23:10:16.662Z,21.40
2017-12-29T23:11:16.663Z,23.20
2017-12-29T23:12:16.669Z,19.70
2017-12-29T23:13:16.666Z,19.00
2017-12-29T23:14:16.669Z,22.30
2017-12-29T23:15:16.686Z,23.10
2017-12-29T23:16:16.678Z,23.20
2017-12-29T23:17:16.678Z,21.10
2017-12-29T23:18:16.678Z,19.50
2017-12-29T23:19:16.686Z,20.80
2017-12-29T23:20:16.698Z,17.00
2017-12-29T23:21:16.714Z,21.00
2017-12-29T23:22:16.689Z,18.40
2017-12-29T23:23:16.694Z,20.70
2017-12-29T23:24:16.701Z,20.20
2017-12-29T23:25:16.707Z,24.00
2017-12-29T23:26:16.704Z,21.90
2017-12-29T23:27:16.708Z,21.70
2017-12-29T23:28:16.707Z,21.00
2017-12-29T23:29:16.716Z,21.30
2017-12-29T23:30:16.747Z,17.70
2017-12-29T23:31:16.710Z,21.90
2017-12-29T23:32:16.719Z,18.00
2017-12-29T23:33:16.723Z,20.70
2017-12-29T23:34:16.726Z,21.10
2017-12-29T23:35:16.731Z,21.40
2017-12-29T23:36:16.729Z,21.30
2017-12-29T23:37:16.773Z,23.40
2017-12-29T23:38:16.735Z,18.70
2017-12-29T23:39:16.734Z,23.10
2017-12-29T23:40:16.745Z,18.50
2017-12-29T23:41:16.746Z,20.80
2017-12-29T23:42:16.745Z,19.80
2017-12-29T23:43:16.749Z,18.40
2017-12-29T23:44:16.762Z,19.50
2017-12-29T23:45:16.756Z,20.10
2017-12-29T23:46:16.762Z,17.80
2017-12-29T23:47:16.765Z,19.60
2017-12-29T23:48:16.762Z,21.30
2017-12-29T23:49:16.763Z,23.50
2017-12-29T23:50:16.769Z,19.50
2017-12-29T23:51:16.769Z,22.90
2017-12-29T23:52:16.776Z,20.00
2017-12-29T23:53:16.774Z,21.60
2017-12-29T23:54:16.820Z,26.40
2017-12-29T23:55:16.780Z,20.00
2017-12-29T23:56:16.789Z,21.10
2017-12-29T23:57:16.787Z,21.90
2017-12-29T23:58:16.797Z,19.00
2017-12-29T23:59:16.787Z,22.10
